createdAt,value
2018-01-07T00:00:21.482Z,783.92
2018-01-07T00:00:25.619Z,783.93
2018-01-07T00:00:29.952Z,783.95
2018-01-07T00:00:33.971Z,783.95
2018-01-07T00:00:38.199Z,783.94
2018-01-07T00:00:42.461Z,783.93
2018-01-07T00:00:46.578Z,783.94
2018-01-07T00:00:50.813Z,783.95
2018-01-07T00:00:54.721Z,783.93
2018-01-07T00:00:58.831Z,783.94
2018-01-07T00:01:03.115Z,783.94
2018-01-07T00:01:07.342Z,783.92
2018-01-07T00:01:11.470Z,783.94
2018-01-07T00:01:15.478Z,783.93
2018-01-07T00:01:19.699Z,783.91
2018-01-07T00:01:23.939Z,783.94
2018-01-07T00:01:27.963Z,783.94
2018-01-07T00:01:32.199Z,783.95
2018-01-07T00:01:36.574Z,783.94
2018-01-07T00:01:40.901Z,783.95
2018-01-07T00:01:45.015Z,783.94
2018-01-07T00:01:49.055Z,783.95
2018-01-07T00:01:53.191Z,783.94
2018-01-07T00:01:57.513Z,783.95
2018-01-07T00:02:01.637Z,783.95
2018-01-07T00:02:05.703Z,783.94
2018-01-07T00:02:09.738Z,783.96
2018-01-07T00:02:13.962Z,783.95
2018-01-07T00:02:18.285Z,783.94
2018-01-07T00:02:22.522Z,783.93
2018-01-07T00:02:26.743Z,783.94
2018-01-07T00:02:30.870Z,783.92
2018-01-07T00:02:35.010Z,783.94
2018-01-07T00:02:39.338Z,783.87
2018-01-07T00:02:43.479Z,783.85
2018-01-07T00:02:47.703Z,783.86
2018-01-07T00:02:52.047Z,783.89
2018-01-07T00:02:56.393Z,783.92
2018-01-07T00:03:00.720Z,783.92
2018-01-07T00:03:04.950Z,783.93
2018-01-07T00:03:09.190Z,783.93
2018-01-07T00:03:13.313Z,783.92
2018-01-07T00:03:17.551Z,783.95
2018-01-07T00:03:21.892Z,783.92
2018-01-07T00:03:25.911Z,783.93
2018-01-07T00:03:30.037Z,783.94
2018-01-07T00:03:34.274Z,783.92
2018-01-07T00:03:38.517Z,783.95
2018-01-07T00:03:42.796Z,783.92
2018-01-07T00:03:47.009Z,783.96
2018-01-07T00:03:51.219Z,783.97
2018-01-07T00:03:55.449Z,783.95
2018-01-07T00:03:59.664Z,783.93
2018-01-07T00:04:03.890Z,783.94
2018-01-07T00:04:08.112Z,783.95
2018-01-07T00:04:12.228Z,783.98
2018-01-07T00:04:16.461Z,783.94
2018-01-07T00:04:20.588Z,783.97
2018-01-07T00:04:24.618Z,783.98
2018-01-07T00:04:28.631Z,783.94
2018-01-07T00:04:32.858Z,783.95
2018-01-07T00:04:37.095Z,783.93
2018-01-07T00:04:41.324Z,783.94
2018-01-07T00:04:45.444Z,783.93
2018-01-07T00:04:49.478Z,783.94
2018-01-07T00:04:53.593Z,783.92
2018-01-07T00:04:57.933Z,783.92
2018-01-07T00:05:02.269Z,783.93
2018-01-07T00:05:06.283Z,783.93
2018-01-07T00:05:10.517Z,783.92
2018-01-07T00:05:14.679Z,783.92
2018-01-07T00:05:18.901Z,783.93
2018-01-07T00:05:23.225Z,783.92
2018-01-07T00:05:27.579Z,783.9
2018-01-07T00:05:31.823Z,783.93
2018-01-07T00:05:35.946Z,783.88
2018-01-07T00:05:40.177Z,783.88
2018-01-07T00:05:44.454Z,783.92
2018-01-07T00:05:48.364Z,783.92
2018-01-07T00:05:52.498Z,783.9
2018-01-07T00:05:56.841Z,783.86
2018-01-07T00:06:01.060Z,783.88
2018-01-07T00:06:05.209Z,783.86
2018-01-07T00:06:09.437Z,783.9
2018-01-07T00:06:13.679Z,783.9
2018-01-07T00:06:17.912Z,783.93
2018-01-07T00:06:22.040Z,783.93
2018-01-07T00:06:26.270Z,783.95
2018-01-07T00:06:30.390Z,783.9
2018-01-07T00:06:34.399Z,783.92
2018-01-07T00:06:38.632Z,783.91
2018-01-07T00:06:42.859Z,783.93
2018-01-07T00:06:46.954Z,783.95
2018-01-07T00:06:51.178Z,783.92
2018-01-07T00:06:55.505Z,783.93
2018-01-07T00:06:59.518Z,783.91
2018-01-07T00:07:03.849Z,783.93
2018-01-07T00:07:08.174Z,783.94
2018-01-07T00:07:12.410Z,783.94
2018-01-07T00:07:16.634Z,783.96
2018-01-07T00:07:20.848Z,783.96
2018-01-07T00:07:25.193Z,783.91
2018-01-07T00:07:29.316Z,783.95
2018-01-07T00:07:33.484Z,783.93
2018-01-07T00:07:37.716Z,783.93
2018-01-07T00:07:41.840Z,783.95
2018-01-07T00:07:45.976Z,783.89
2018-01-07T00:07:50.207Z,783.92
2018-01-07T00:07:54.115Z,783.88
2018-01-07T00:07:58.462Z,783.92
2018-01-07T00:08:02.735Z,783.94
2018-01-07T00:08:06.975Z,783.94
2018-01-07T00:08:11.207Z,783.94
2018-01-07T00:08:15.579Z,783.93
2018-01-07T00:08:19.442Z,783.93
2018-01-07T00:08:23.554Z,783.91
2018-01-07T00:08:27.684Z,783.91
2018-01-07T00:08:31.853Z,783.9
2018-01-07T00:08:36.192Z,783.9
2018-01-07T00:08:40.312Z,783.9
2018-01-07T00:08:44.526Z,783.92
2018-01-07T00:08:48.560Z,783.9
2018-01-07T00:08:52.798Z,783.92
2018-01-07T00:08:57.176Z,783.96
2018-01-07T00:09:01.400Z,783.91
2018-01-07T00:09:05.614Z,783.93
2018-01-07T00:09:09.954Z,783.9
2018-01-07T00:09:14.116Z,783.91
2018-01-07T00:09:18.227Z,783.92
2018-01-07T00:09:22.549Z,783.93
2018-01-07T00:09:26.678Z,783.94
2018-01-07T00:09:30.915Z,783.9
2018-01-07T00:09:35.152Z,783.91
2018-01-07T00:09:39.273Z,783.91
2018-01-07T00:09:43.415Z,783.9
2018-01-07T00:09:47.436Z,783.9
2018-01-07T00:09:51.437Z,783.89
2018-01-07T00:09:55.654Z,783.9
2018-01-07T00:10:00.000Z,783.91
2018-01-07T00:10:04.189Z,783.91
2018-01-07T00:10:08.430Z,783.9
2018-01-07T00:10:12.774Z,783.92
2018-01-07T00:10:17.013Z,783.91
2018-01-07T00:10:21.409Z,783.9
2018-01-07T00:10:25.751Z,783.89
2018-01-07T00:10:29.882Z,783.9
2018-01-07T00:10:34.017Z,783.88
2018-01-07T00:10:38.160Z,783.9
2018-01-07T00:10:42.284Z,783.88
2018-01-07T00:10:46.675Z,783.91
2018-01-07T00:10:50.816Z,783.9
2018-01-07T00:10:55.131Z,783.89
2018-01-07T00:10:59.253Z,783.92
2018-01-07T00:11:03.485Z,783.89
2018-01-07T00:11:07.818Z,783.88
2018-01-07T00:11:12.142Z,783.88
2018-01-07T00:11:16.377Z,783.87
2018-01-07T00:11:20.493Z,783.9
2018-01-07T00:11:24.750Z,783.89
2018-01-07T00:11:29.087Z,783.89
2018-01-07T00:11:33.111Z,783.87
2018-01-07T00:11:37.227Z,783.85
2018-01-07T00:11:41.597Z,783.86
2018-01-07T00:11:45.832Z,783.86
2018-01-07T00:11:49.751Z,783.87
2018-01-07T00:11:53.884Z,783.9
2018-01-07T00:11:58.002Z,783.9
2018-01-07T00:12:02.231Z,783.85
2018-01-07T00:12:06.372Z,783.91
2018-01-07T00:12:10.488Z,783.86
2018-01-07T00:12:14.618Z,783.88
2018-01-07T00:12:18.741Z,783.91
2018-01-07T00:12:23.072Z,783.9
2018-01-07T00:12:27.208Z,783.88
2018-01-07T00:12:31.433Z,783.86
2018-01-07T00:12:35.661Z,783.86
2018-01-07T00:12:39.878Z,783.85
2018-01-07T00:12:44.097Z,783.86
2018-01-07T00:12:48.120Z,783.88
2018-01-07T00:12:52.398Z,783.89
2018-01-07T00:12:56.638Z,783.91
2018-01-07T00:13:00.571Z,783.87
2018-01-07T00:13:04.931Z,783.88
2018-01-07T00:13:09.280Z,783.83
2018-01-07T00:13:13.499Z,783.87
2018-01-07T00:13:17.731Z,783.89
2018-01-07T00:13:21.960Z,783.86
2018-01-07T00:13:26.200Z,783.82
2018-01-07T00:13:30.216Z,783.81
2018-01-07T00:13:34.032Z,783.84
2018-01-07T00:13:38.262Z,783.84
2018-01-07T00:13:42.489Z,783.83
2018-01-07T00:13:46.831Z,783.85
2018-01-07T00:13:50.962Z,783.88
2018-01-07T00:13:55.093Z,783.84
2018-01-07T00:13:59.317Z,783.84
2018-01-07T00:14:03.559Z,783.84
2018-01-07T00:14:07.807Z,783.85
2018-01-07T00:14:12.024Z,783.89
2018-01-07T00:14:16.144Z,783.89
2018-01-07T00:14:20.475Z,783.92
2018-01-07T00:14:24.605Z,783.89
2018-01-07T00:14:28.742Z,783.89
2018-01-07T00:14:33.082Z,783.86
2018-01-07T00:14:37.432Z,783.88
2018-01-07T00:14:41.773Z,783.86
2018-01-07T00:14:45.901Z,783.9
2018-01-07T00:14:50.004Z,783.88
2018-01-07T00:14:54.011Z,783.83
2018-01-07T00:14:58.144Z,783.84
2018-01-07T00:15:02.577Z,783.84
2018-01-07T00:15:06.624Z,783.89
2018-01-07T00:15:10.942Z,783.91
2018-01-07T00:15:15.261Z,783.9
2018-01-07T00:15:19.391Z,783.89
2018-01-07T00:15:23.608Z,783.88
2018-01-07T00:15:28.198Z,783.92
2018-01-07T00:15:32.313Z,783.9
2018-01-07T00:15:36.443Z,783.92
2018-01-07T00:15:40.663Z,783.92
2018-01-07T00:15:45.013Z,783.91
2018-01-07T00:15:49.344Z,783.92
2018-01-07T00:15:53.375Z,783.92
2018-01-07T00:15:57.607Z,783.94
2018-01-07T00:16:02.179Z,783.85
2018-01-07T00:16:06.426Z,783.86
2018-01-07T00:16:10.666Z,783.92
2018-01-07T00:16:14.783Z,783.94
2018-01-07T00:16:19.111Z,783.94
2018-01-07T00:16:23.120Z,783.92
2018-01-07T00:16:27.343Z,783.94
2018-01-07T00:16:31.462Z,783.94
2018-01-07T00:16:35.804Z,783.92
2018-01-07T00:16:40.144Z,783.91
2018-01-07T00:16:44.510Z,783.95
2018-01-07T00:16:48.859Z,783.96
2018-01-07T00:16:53.131Z,783.94
2018-01-07T00:16:57.358Z,783.95
2018-01-07T00:17:01.749Z,783.94
2018-01-07T00:17:06.081Z,783.93
2018-01-07T00:17:10.334Z,783.92
2018-01-07T00:17:14.437Z,783.95
2018-01-07T00:17:18.567Z,783.94
2018-01-07T00:17:22.795Z,783.93
2018-01-07T00:17:26.807Z,783.93
2018-01-07T00:17:31.037Z,783.93
2018-01-07T00:17:35.286Z,783.93
2018-01-07T00:17:39.615Z,783.95
2018-01-07T00:17:43.726Z,783.92
2018-01-07T00:17:47.947Z,783.96
2018-01-07T00:17:52.205Z,783.92
2018-01-07T00:17:56.545Z,783.94
2018-01-07T00:18:00.877Z,783.98
2018-01-07T00:18:05.217Z,783.97
2018-01-07T00:18:09.331Z,783.94
2018-01-07T00:18:13.445Z,783.96
2018-01-07T00:18:17.361Z,783.95
2018-01-07T00:18:21.508Z,783.99
2018-01-07T00:18:25.655Z,783.98
2018-01-07T00:18:29.916Z,783.96
2018-01-07T00:18:34.059Z,783.98
2018-01-07T00:18:38.174Z,783.98
2018-01-07T00:18:42.312Z,783.99
2018-01-07T00:18:46.720Z,783.96
2018-01-07T00:18:50.843Z,783.97
2018-01-07T00:18:54.977Z,783.99
2018-01-07T00:18:59.003Z,783.96
2018-01-07T00:19:03.339Z,783.97
2018-01-07T00:19:07.562Z,783.99
2018-01-07T00:19:11.788Z,783.98
2018-01-07T00:19:15.903Z,784
2018-01-07T00:19:20.244Z,783.96
2018-01-07T00:19:24.471Z,783.93
2018-01-07T00:19:28.278Z,783.98
2018-01-07T00:19:32.494Z,783.97
2018-01-07T00:19:36.615Z,784
2018-01-07T00:19:40.942Z,783.99
2018-01-07T00:19:45.290Z,784
2018-01-07T00:19:49.402Z,783.96
2018-01-07T00:19:53.452Z,783.93
2018-01-07T00:19:57.732Z,783.92
2018-01-07T00:20:02.214Z,783.92
2018-01-07T00:20:06.431Z,783.93
2018-01-07T00:20:10.752Z,783.93
2018-01-07T00:20:15.091Z,783.98
2018-01-07T00:20:19.209Z,783.98
2018-01-07T00:20:23.259Z,783.97
2018-01-07T00:20:27.499Z,783.93
2018-01-07T00:20:31.728Z,783.95
2018-01-07T00:20:35.946Z,783.97
2018-01-07T00:20:40.268Z,783.97
2018-01-07T00:20:44.592Z,783.99
2018-01-07T00:20:48.720Z,783.93
2018-01-07T00:20:52.745Z,783.97
2018-01-07T00:20:56.851Z,783.96
2018-01-07T00:21:01.087Z,783.96
2018-01-07T00:21:05.459Z,783.95
2018-01-07T00:21:09.595Z,783.98
2018-01-07T00:21:13.848Z,783.92
2018-01-07T00:21:18.026Z,783.92
2018-01-07T00:21:22.155Z,783.92
2018-01-07T00:21:26.271Z,783.93
2018-01-07T00:21:30.621Z,783.96
2018-01-07T00:21:34.751Z,783.92
2018-01-07T00:21:38.971Z,783.92
2018-01-07T00:21:43.298Z,783.86
2018-01-07T00:21:47.598Z,783.9
2018-01-07T00:21:51.821Z,783.89
2018-01-07T00:21:55.844Z,783.9
2018-01-07T00:21:59.856Z,783.91
2018-01-07T00:22:04.351Z,783.92
2018-01-07T00:22:08.604Z,783.92
2018-01-07T00:22:12.621Z,783.93
2018-01-07T00:22:16.748Z,783.91
2018-01-07T00:22:20.965Z,783.96
2018-01-07T00:22:25.208Z,783.92
2018-01-07T00:22:29.441Z,783.93
2018-01-07T00:22:33.472Z,783.91
2018-01-07T00:22:37.600Z,783.9
2018-01-07T00:22:41.828Z,783.89
2018-01-07T00:22:46.057Z,783.88
2018-01-07T00:22:50.279Z,783.89
2018-01-07T00:22:54.517Z,783.89
2018-01-07T00:22:58.752Z,783.82
2018-01-07T00:23:02.890Z,783.89
2018-01-07T00:23:06.925Z,783.89
2018-01-07T00:23:11.079Z,783.86
2018-01-07T00:23:15.432Z,783.85
2018-01-07T00:23:19.554Z,783.88
2018-01-07T00:23:23.786Z,783.88
2018-01-07T00:23:27.919Z,783.87
2018-01-07T00:23:32.147Z,783.85
2018-01-07T00:23:36.276Z,783.84
2018-01-07T00:23:40.303Z,783.85
2018-01-07T00:23:44.547Z,783.85
2018-01-07T00:23:48.784Z,783.84
2018-01-07T00:23:53.017Z,783.83
2018-01-07T00:23:57.246Z,783.87
2018-01-07T00:24:01.468Z,783.83
2018-01-07T00:24:05.930Z,783.83
2018-01-07T00:24:10.074Z,783.83
2018-01-07T00:24:14.300Z,783.83
2018-01-07T00:24:18.402Z,783.84
2018-01-07T00:24:22.519Z,783.86
2018-01-07T00:24:26.868Z,783.88
2018-01-07T00:24:30.896Z,783.87
2018-01-07T00:24:35.237Z,783.88
2018-01-07T00:24:39.365Z,783.86
2018-01-07T00:24:43.487Z,783.85
2018-01-07T00:24:47.846Z,783.83
2018-01-07T00:24:52.205Z,783.86
2018-01-07T00:24:56.544Z,783.86
2018-01-07T00:25:00.825Z,783.87
2018-01-07T00:25:05.201Z,783.83
2018-01-07T00:25:09.537Z,783.85
2018-01-07T00:25:13.865Z,783.87
2018-01-07T00:25:18.107Z,783.83
2018-01-07T00:25:22.441Z,783.86
2018-01-07T00:25:26.665Z,783.87
2018-01-07T00:25:30.687Z,783.86
2018-01-07T00:25:34.612Z,783.86
2018-01-07T00:25:38.954Z,783.83
2018-01-07T00:25:42.859Z,783.85
2018-01-07T00:25:46.876Z,783.83
2018-01-07T00:25:51.112Z,783.86
2018-01-07T00:25:55.244Z,783.83
2018-01-07T00:25:59.498Z,783.84
2018-01-07T00:26:03.838Z,783.83
2018-01-07T00:26:07.971Z,783.76
2018-01-07T00:26:12.188Z,783.82
2018-01-07T00:26:16.401Z,783.77
2018-01-07T00:26:20.763Z,783.79
2018-01-07T00:26:24.988Z,783.77
2018-01-07T00:26:29.317Z,783.79
2018-01-07T00:26:33.434Z,783.79
2018-01-07T00:26:37.578Z,783.79
2018-01-07T00:26:41.794Z,783.82
2018-01-07T00:26:45.923Z,783.84
2018-01-07T00:26:50.249Z,783.83
2018-01-07T00:26:54.266Z,783.84
2018-01-07T00:26:58.172Z,783.78
2018-01-07T00:27:02.816Z,783.83
2018-01-07T00:27:07.148Z,783.83
2018-01-07T00:27:11.276Z,783.82
2018-01-07T00:27:15.620Z,783.83
2018-01-07T00:27:19.973Z,783.79
2018-01-07T00:27:24.308Z,783.8
2018-01-07T00:27:28.433Z,783.78
2018-01-07T00:27:32.338Z,783.78
2018-01-07T00:27:36.452Z,783.76
2018-01-07T00:27:40.789Z,783.75
2018-01-07T00:27:44.931Z,783.77
2018-01-07T00:27:49.162Z,783.74
2018-01-07T00:27:53.392Z,783.78
2018-01-07T00:27:57.626Z,783.76
2018-01-07T00:28:01.861Z,783.72
2018-01-07T00:28:05.917Z,783.75
2018-01-07T00:28:10.044Z,783.72
2018-01-07T00:28:14.283Z,783.74
2018-01-07T00:28:18.513Z,783.73
2018-01-07T00:28:22.624Z,783.7
2018-01-07T00:28:26.843Z,783.73
2018-01-07T00:28:31.087Z,783.73
2018-01-07T00:28:35.198Z,783.71
2018-01-07T00:28:39.333Z,783.73
2018-01-07T00:28:43.463Z,783.72
2018-01-07T00:28:47.780Z,783.74
2018-01-07T00:28:51.921Z,783.75
2018-01-07T00:28:56.152Z,783.71
2018-01-07T00:29:00.272Z,783.68
2018-01-07T00:29:04.961Z,783.73
2018-01-07T00:29:08.991Z,783.73
2018-01-07T00:29:13.221Z,783.73
2018-01-07T00:29:17.551Z,783.71
2018-01-07T00:29:21.778Z,783.71
2018-01-07T00:29:25.906Z,783.71
2018-01-07T00:29:29.939Z,783.74
2018-01-07T00:29:33.866Z,783.68
2018-01-07T00:29:38.241Z,783.72
2018-01-07T00:29:42.367Z,783.73
2018-01-07T00:29:46.597Z,783.72
2018-01-07T00:29:50.720Z,783.72
2018-01-07T00:29:54.837Z,783.71
2018-01-07T00:29:58.964Z,783.73
2018-01-07T00:30:03.386Z,783.73
2018-01-07T00:30:07.626Z,783.7
2018-01-07T00:30:11.751Z,783.72
2018-01-07T00:30:16.068Z,783.72
2018-01-07T00:30:20.409Z,783.73
2018-01-07T00:30:24.636Z,783.72
2018-01-07T00:30:28.877Z,783.75
2018-01-07T00:30:33.092Z,783.74
2018-01-07T00:30:37.440Z,783.73
2018-01-07T00:30:41.778Z,783.72
2018-01-07T00:30:45.992Z,783.68
2018-01-07T00:30:50.316Z,783.68
2018-01-07T00:30:54.352Z,783.73
2018-01-07T00:30:58.589Z,783.75
2018-01-07T00:31:03.019Z,783.73
2018-01-07T00:31:07.243Z,783.7
2018-01-07T00:31:11.367Z,783.73
2018-01-07T00:31:15.695Z,783.73
2018-01-07T00:31:19.917Z,783.74
2018-01-07T00:31:24.158Z,783.73
2018-01-07T00:31:28.057Z,783.71
2018-01-07T00:31:32.092Z,783.72
2018-01-07T00:31:36.316Z,783.75
2018-01-07T00:31:40.659Z,783.74
2018-01-07T00:31:44.869Z,783.73
2018-01-07T00:31:49.187Z,783.75
2018-01-07T00:31:53.096Z,783.77
2018-01-07T00:31:57.110Z,783.75
2018-01-07T00:32:01.137Z,783.75
2018-01-07T00:32:05.166Z,783.75
2018-01-07T00:32:09.505Z,783.75
2018-01-07T00:32:13.848Z,783.74
2018-01-07T00:32:17.959Z,783.75
2018-01-07T00:32:22.095Z,783.77
2018-01-07T00:32:26.323Z,783.79
2018-01-07T00:32:30.444Z,783.73
2018-01-07T00:32:34.567Z,783.76
2018-01-07T00:32:38.799Z,783.78
2018-01-07T00:32:43.025Z,783.73
2018-01-07T00:32:47.244Z,783.77
2018-01-07T00:32:51.266Z,783.79
2018-01-07T00:32:55.481Z,783.78
2018-01-07T00:32:59.396Z,783.76
2018-01-07T00:33:03.641Z,783.76
2018-01-07T00:33:07.978Z,783.75
2018-01-07T00:33:12.194Z,783.73
2018-01-07T00:33:16.405Z,783.75
2018-01-07T00:33:20.631Z,783.75
2018-01-07T00:33:24.854Z,783.71
2018-01-07T00:33:28.976Z,783.73
2018-01-07T00:33:33.011Z,783.75
2018-01-07T00:33:37.238Z,783.76
2018-01-07T00:33:41.464Z,783.78
2018-01-07T00:33:45.571Z,783.74
2018-01-07T00:33:49.698Z,783.74
2018-01-07T00:33:53.942Z,783.77
2018-01-07T00:33:58.071Z,783.73
2018-01-07T00:34:02.202Z,783.75
2018-01-07T00:34:06.440Z,783.75
2018-01-07T00:34:10.472Z,783.76
2018-01-07T00:34:14.819Z,783.75
2018-01-07T00:34:19.055Z,783.74
2018-01-07T00:34:23.303Z,783.76
2018-01-07T00:34:27.212Z,783.76
2018-01-07T00:34:31.545Z,783.73
2018-01-07T00:34:35.783Z,783.76
2018-01-07T00:34:40.010Z,783.75
2018-01-07T00:34:44.350Z,783.79
2018-01-07T00:34:48.694Z,783.77
2018-01-07T00:34:52.733Z,783.76
2018-01-07T00:34:57.065Z,783.72
2018-01-07T00:35:01.195Z,783.76
2018-01-07T00:35:05.432Z,783.77
2018-01-07T00:35:09.558Z,783.76
2018-01-07T00:35:13.688Z,783.77
2018-01-07T00:35:17.812Z,783.77
2018-01-07T00:35:21.914Z,783.77
2018-01-07T00:35:26.153Z,783.75
2018-01-07T00:35:30.274Z,783.79
2018-01-07T00:35:34.298Z,783.74
2018-01-07T00:35:38.519Z,783.78
2018-01-07T00:35:42.728Z,783.76
2018-01-07T00:35:46.947Z,783.74
2018-01-07T00:35:51.272Z,783.72
2018-01-07T00:35:55.518Z,783.78
2018-01-07T00:35:59.748Z,783.76
2018-01-07T00:36:03.764Z,783.77
2018-01-07T00:36:07.993Z,783.74
2018-01-07T00:36:12.221Z,783.76
2018-01-07T00:36:16.550Z,783.76
2018-01-07T00:36:20.883Z,783.77
2018-01-07T00:36:24.902Z,783.77
2018-01-07T00:36:29.079Z,783.73
2018-01-07T00:36:33.325Z,783.75
2018-01-07T00:36:37.445Z,783.77
2018-01-07T00:36:41.796Z,783.79
2018-01-07T00:36:45.907Z,783.77
2018-01-07T00:36:50.150Z,783.74
2018-01-07T00:36:54.396Z,783.74
2018-01-07T00:36:58.622Z,783.78
2018-01-07T00:37:02.764Z,783.79
2018-01-07T00:37:06.880Z,783.75
2018-01-07T00:37:10.987Z,783.77
2018-01-07T00:37:15.116Z,783.73
2018-01-07T00:37:19.335Z,783.72
2018-01-07T00:37:23.560Z,783.76
2018-01-07T00:37:27.790Z,783.75
2018-01-07T00:37:31.813Z,783.72
2018-01-07T00:37:35.837Z,783.74
2018-01-07T00:37:39.956Z,783.74
2018-01-07T00:37:44.171Z,783.8
2018-01-07T00:37:48.296Z,783.79
2018-01-07T00:37:52.319Z,783.78
2018-01-07T00:37:56.665Z,783.78
2018-01-07T00:38:00.567Z,783.8
2018-01-07T00:38:04.844Z,783.79
2018-01-07T00:38:08.962Z,783.81
2018-01-07T00:38:13.084Z,783.81
2018-01-07T00:38:17.197Z,783.8
2018-01-07T00:38:21.325Z,783.77
2018-01-07T00:38:25.454Z,783.78
2018-01-07T00:38:29.675Z,783.79
2018-01-07T00:38:33.698Z,783.77
2018-01-07T00:38:38.034Z,783.79
2018-01-07T00:38:42.368Z,783.82
2018-01-07T00:38:46.713Z,783.79
2018-01-07T00:38:50.844Z,783.77
2018-01-07T00:38:55.060Z,783.78
2018-01-07T00:38:59.185Z,783.78
2018-01-07T00:39:03.363Z,783.8
2018-01-07T00:39:07.695Z,783.78
2018-01-07T00:39:12.037Z,783.8
2018-01-07T00:39:16.052Z,783.81
2018-01-07T00:39:20.368Z,783.81
2018-01-07T00:39:24.490Z,783.77
2018-01-07T00:39:28.313Z,783.8
2018-01-07T00:39:32.426Z,783.79
2018-01-07T00:39:36.551Z,783.77
2018-01-07T00:39:40.787Z,783.83
2018-01-07T00:39:44.698Z,783.81
2018-01-07T00:39:49.028Z,783.76
2018-01-07T00:39:53.263Z,783.76
2018-01-07T00:39:57.498Z,783.75
2018-01-07T00:40:01.622Z,783.75
2018-01-07T00:40:05.746Z,783.75
2018-01-07T00:40:10.085Z,783.78
2018-01-07T00:40:14.002Z,783.8
2018-01-07T00:40:18.231Z,783.84
2018-01-07T00:40:22.567Z,783.82
2018-01-07T00:40:26.806Z,783.82
2018-01-07T00:40:31.194Z,783.82
2018-01-07T00:40:35.447Z,783.82
2018-01-07T00:40:39.569Z,783.83
2018-01-07T00:40:43.890Z,783.8
2018-01-07T00:40:48.018Z,783.8
2018-01-07T00:40:52.336Z,783.8
2018-01-07T00:40:56.464Z,783.84
2018-01-07T00:41:00.674Z,783.84
2018-01-07T00:41:04.899Z,783.86
2018-01-07T00:41:09.130Z,783.84
2018-01-07T00:41:13.459Z,783.87
2018-01-07T00:41:17.700Z,783.88
2018-01-07T00:41:21.818Z,783.83
2018-01-07T00:41:26.055Z,783.86
2018-01-07T00:41:30.196Z,783.83
2018-01-07T00:41:34.137Z,783.85
2018-01-07T00:41:38.349Z,783.86
2018-01-07T00:41:42.698Z,783.82
2018-01-07T00:41:46.717Z,783.84
2018-01-07T00:41:51.093Z,783.85
2018-01-07T00:41:55.470Z,783.82
2018-01-07T00:41:59.593Z,783.87
2018-01-07T00:42:03.833Z,783.87
2018-01-07T00:42:08.059Z,783.84
2018-01-07T00:42:12.354Z,783.86
2018-01-07T00:42:16.700Z,783.83
2018-01-07T00:42:21.055Z,783.85
2018-01-07T00:42:25.226Z,783.85
2018-01-07T00:42:29.360Z,783.89
2018-01-07T00:42:33.706Z,783.85
2018-01-07T00:42:37.944Z,783.87
2018-01-07T00:42:41.859Z,783.85
2018-01-07T00:42:46.085Z,783.88
2018-01-07T00:42:50.456Z,783.86
2018-01-07T00:42:54.687Z,783.85
2018-01-07T00:42:58.819Z,783.86
2018-01-07T00:43:03.086Z,783.87
2018-01-07T00:43:07.008Z,783.84
2018-01-07T00:43:10.908Z,783.89
2018-01-07T00:43:15.038Z,783.87
2018-01-07T00:43:19.269Z,783.87
2018-01-07T00:43:23.483Z,783.88
2018-01-07T00:43:27.609Z,783.89
2018-01-07T00:43:31.517Z,783.9
2018-01-07T00:43:35.538Z,783.87
2018-01-07T00:43:39.653Z,783.88
2018-01-07T00:43:43.890Z,783.88
2018-01-07T00:43:47.919Z,783.89
2018-01-07T00:43:52.038Z,783.87
2018-01-07T00:43:56.280Z,783.87
2018-01-07T00:44:00.629Z,783.88
2018-01-07T00:44:04.697Z,783.91
2018-01-07T00:44:09.035Z,783.9
2018-01-07T00:44:13.361Z,783.89
2018-01-07T00:44:17.484Z,783.88
2018-01-07T00:44:21.613Z,783.91
2018-01-07T00:44:25.635Z,783.9
2018-01-07T00:44:29.636Z,783.88
2018-01-07T00:44:33.759Z,783.89
2018-01-07T00:44:38.002Z,783.85
2018-01-07T00:44:42.129Z,783.93
2018-01-07T00:44:46.270Z,783.9
2018-01-07T00:44:50.610Z,783.88
2018-01-07T00:44:54.856Z,783.92
2018-01-07T00:44:59.001Z,783.9
2018-01-07T00:45:03.311Z,783.93
2018-01-07T00:45:07.331Z,783.93
2018-01-07T00:45:11.566Z,783.89
2018-01-07T00:45:15.894Z,783.9
2018-01-07T00:45:20.229Z,783.88
2018-01-07T00:45:24.465Z,783.9
2018-01-07T00:45:28.691Z,783.88
2018-01-07T00:45:32.611Z,783.89
2018-01-07T00:45:36.725Z,783.93
2018-01-07T00:45:40.753Z,783.94
2018-01-07T00:45:44.884Z,783.94
2018-01-07T00:45:49.104Z,783.94
2018-01-07T00:45:53.346Z,783.98
2018-01-07T00:45:57.577Z,783.96
2018-01-07T00:46:02.159Z,783.94
2018-01-07T00:46:06.182Z,783.95
2018-01-07T00:46:10.416Z,783.94
2018-01-07T00:46:14.549Z,783.97
2018-01-07T00:46:18.694Z,783.93
2018-01-07T00:46:22.924Z,783.9
2018-01-07T00:46:27.271Z,783.91
2018-01-07T00:46:31.392Z,783.92
2018-01-07T00:46:35.412Z,783.89
2018-01-07T00:46:39.651Z,783.9
2018-01-07T00:46:43.970Z,783.96
2018-01-07T00:46:48.101Z,783.97
2018-01-07T00:46:52.327Z,783.96
2018-01-07T00:46:56.346Z,783.97
2018-01-07T00:47:00.575Z,783.98
2018-01-07T00:47:04.962Z,783.97
2018-01-07T00:47:09.191Z,783.99
2018-01-07T00:47:13.421Z,783.95
2018-01-07T00:47:17.772Z,783.95
2018-01-07T00:47:22.014Z,783.99
2018-01-07T00:47:26.052Z,783.96
2018-01-07T00:47:30.173Z,783.94
2018-01-07T00:47:34.321Z,783.96
2018-01-07T00:47:38.463Z,783.94
2018-01-07T00:47:42.701Z,783.96
2018-01-07T00:47:47.052Z,783.94
2018-01-07T00:47:51.177Z,783.94
2018-01-07T00:47:55.397Z,783.93
2018-01-07T00:47:59.720Z,783.93
2018-01-07T00:48:04.159Z,783.97
2018-01-07T00:48:08.397Z,783.98
2018-01-07T00:48:12.640Z,783.99
2018-01-07T00:48:16.772Z,783.95
2018-01-07T00:48:20.908Z,783.98
2018-01-07T00:48:24.931Z,783.99
2018-01-07T00:48:29.178Z,783.99
2018-01-07T00:48:33.088Z,783.98
2018-01-07T00:48:37.345Z,784
2018-01-07T00:48:41.564Z,784.02
2018-01-07T00:48:45.908Z,783.95
2018-01-07T00:48:49.926Z,783.99
2018-01-07T00:48:54.166Z,783.96
2018-01-07T00:48:58.281Z,783.99
2018-01-07T00:49:02.609Z,783.99
2018-01-07T00:49:06.630Z,783.99
2018-01-07T00:49:10.542Z,783.99
2018-01-07T00:49:14.779Z,783.94
2018-01-07T00:49:19.002Z,783.94
2018-01-07T00:49:23.354Z,783.95
2018-01-07T00:49:27.493Z,783.94
2018-01-07T00:49:31.507Z,783.92
2018-01-07T00:49:35.516Z,783.95
2018-01-07T00:49:39.861Z,783.93
2018-01-07T00:49:44.078Z,783.97
2018-01-07T00:49:48.403Z,783.96
2018-01-07T00:49:52.529Z,783.96
2018-01-07T00:49:56.758Z,783.95
2018-01-07T00:50:01.092Z,783.98
2018-01-07T00:50:05.220Z,784
2018-01-07T00:50:09.230Z,784
2018-01-07T00:50:13.230Z,783.97
2018-01-07T00:50:17.448Z,783.95
2018-01-07T00:50:21.780Z,783.97
2018-01-07T00:50:25.912Z,783.94
2018-01-07T00:50:30.042Z,783.95
2018-01-07T00:50:34.273Z,783.95
2018-01-07T00:50:38.600Z,783.93
2018-01-07T00:50:42.938Z,783.95
2018-01-07T00:50:46.966Z,783.93
2018-01-07T00:50:51.208Z,783.97
2018-01-07T00:50:55.327Z,783.99
2018-01-07T00:50:59.449Z,783.98
2018-01-07T00:51:03.887Z,784.02
2018-01-07T00:51:08.224Z,784
2018-01-07T00:51:12.250Z,784
2018-01-07T00:51:16.477Z,784.01
2018-01-07T00:51:20.589Z,784.02
2018-01-07T00:51:24.932Z,784
2018-01-07T00:51:29.163Z,784
2018-01-07T00:51:33.408Z,783.97
2018-01-07T00:51:37.656Z,784
2018-01-07T00:51:41.882Z,783.99
2018-01-07T00:51:46.270Z,783.98
2018-01-07T00:51:50.402Z,783.98
2018-01-07T00:51:54.631Z,784
2018-01-07T00:51:58.960Z,784
2018-01-07T00:52:03.216Z,784
2018-01-07T00:52:07.226Z,784
2018-01-07T00:52:11.368Z,784.02
2018-01-07T00:52:15.700Z,784
2018-01-07T00:52:19.816Z,784.01
2018-01-07T00:52:24.061Z,783.99
2018-01-07T00:52:28.082Z,784.05
2018-01-07T00:52:32.107Z,784.02
2018-01-07T00:52:36.226Z,784.01
2018-01-07T00:52:40.371Z,784.04
2018-01-07T00:52:44.489Z,784
2018-01-07T00:52:48.525Z,784.02
2018-01-07T00:52:52.740Z,784.02